Lost Springs, Kansas
Current Conditions -  °F | °C
As of 2:18 PM on Friday 19 Dec 2014 (Local Time) from KFRI Reporting Station
Overcast Overcast  
Wind Chill: 27°   Ceiling: 1700
Heat Index: 32°   Visibility: 10mi
Dew Point: 32°   Wind: 5mph
Humidity: 100%   Direction: 170°S
Pressure: 30.19"   Gusts: NA
Location:  38.57°N, 96.97°W
Report Text: KFRI 192018Z AUTO 17004KT 10SM SCT009 OVC017 00/00 A3019 RMK AO2 CIG 009V017
Loading
Personal Weather Stations






























Interactive Weather Map New forecast layout! Learn more

10-Day Weather Forecast

Advertisements
Track Severe Weather on mobile